KSJC/SJC METAR and TAF weather

Enter ICAO airport designator
Station Type Date Time Source
KSJC METAR 2020/09/26 10:53 UTC NOAA

KSJC 261053Z AUTO 00000KT 10SM CLR 16/11 A3004 RMK AO2 SLP172 T01560106


Station Type Date Time Source
KSJC Decoded METAR 2020/09/26 10:53 UTC NOAA

SAN JOSE INTERNATIONAL AIRPORT, CA, United States (KSJC) 37-22N 121-55W 25M
Sep 26, 2020 - 06:53 AM EDT / 2020.09.26 1053 UTC
Wind: Calm:0
Visibility: 10 mile(s):0
Sky conditions: clear
Temperature: 60.1 F (15.6 C)
Dew Point: 51.1 F (10.6 C)
Relative Humidity: 72%
Pressure (altimeter): 30.04 in. Hg (1017 hPa)
ob: KSJC 261053Z AUTO 00000KT 10SM CLR 16/11 A3004 RMK AO2 SLP172 T01560106
cycle: 11

Station Type Date Time Source
KSJC TAF 2020/09/26 12:42 UTC NOAA

TAF KSJC 261139Z 2612/2712 VRB03KT P6SM SKC
FM261830 32008KT P6SM SKC
FM262100 32014KT P6SM SKC
FM270200 32008KT 6SM FU HZ SKC
FM270500 VRB03KT 6SM FU HZ SKC

Example: see airport list